ベルリン/テーゲル の空港の天気 - METARとTAF

ベルリン・テーゲル国際空港 ( EDDT / TXL ) - ドイツ ベルリン
飛行場実況気象(Metar)
観測時間08/05 23:20 CEST (08/05 21:20 UTC)
風向・風速南東 2m/s
視程10km以上
天気現象
なし
気温21℃
湿度43%
気圧1019hPa
METAREDDT 052120Z 14004KT CAVOK 21/08 Q1019
過去の天気等 Google飛行場航空写真 Wunderground天気予報

過去48時間のMETAR

飛行場予報(TAF)
発表時間: 8/05 19:00 CEST (8/05 17:00 UTC)
予報対象時間: 5日20時 CEST ~ 6日20時 CEST
風向・風速南南西 3m/s
視程10km以上
なし
5日20時 CEST ~ 5日22時 CEST に徐々に
風向・風速南東 3m/s
TAF EDDT 051700Z 0518/0618 20006KT CAVOK
BECMG 0518/0520 13005KT